Kezdőlap
METAR-TAF:

METAR-TAF

Repülőterek :

Perugia, Olaszország

földrajzi szélesség: 43-05N, földrajzi hosszúság: 012-30E, magasság: 208 m

Jelenlegi meteorológiai megfigyelések

A jelentés 43 perccel ezelõtt készült, 13:50 UTC
Különbözõ irányokból fújó szél 2 kt
Hőmérséklet 16°C
Páratartalom 59%
Légköri nyomás 1022 hPa
Látótávolság 10 km, vagy több
Kevés felhő 4500 lábon

METAR: LIRZ 181350Z VRB02KT 9999 FEW045 16/08 Q1022

Idő: 15:33 (14:33 UTC)

Előrejelzés

A jelentés 3 órával és 33 perccel ezelõtt készült, 11:00 UTC
Az előrejelzés 18-én 12 óra UTC és 19-én 12 óra UTC között érvényes
Különbözõ irányokból fújó szél 5 kt
Látótávolság 10 km, vagy több
Szórványos felhőzet 2000 lábon
19-én 09 óra UTC és 19-én 12 óra UTC között ideiglenes
Látótávolság: 4000 m
záporok

TAF: LIRZ 181100Z 1812/1912 VRB05KT 9999 SCT020 TEMPO 1909/1912 4000 SHRA

Meteorológiai megfigyelések és előrejelzések több, mint 4000 repülőtéren (METAR és TAF jelentéseket).

A térképen piros és sárga pontok jelzik az elérhető meteorológiai állomásokat.

Mozgassa az egeret a pont fölött, hogy megjelenjen az állomás neve.

Azután kattintson az időjárási megfigyelések és előrejelzések megtekintéséhez.

A térkép megváltoztatása: kattintson a fekete keresztel jelölt zöld gombra ráközelítéshez, a vonallal jelölt zöld gombra távolításhoz, vagy a zöld nyilakra a szomszédos térképek eléréséhez.


METAR-TAF: